createdAt,value
2019-03-24T00:00:49.105Z,103319.52
2019-03-24T00:03:18.271Z,103326.33
2019-03-24T00:05:47.448Z,103325.94
2019-03-24T00:08:16.835Z,103326.99
2019-03-24T00:10:45.979Z,103323.87
2019-03-24T00:13:15.199Z,103323.91
2019-03-24T00:15:44.373Z,103321.50
2019-03-24T00:18:13.884Z,103320.15
2019-03-24T00:20:43.049Z,103323.64
2019-03-24T00:23:13.917Z,103324.47
2019-03-24T00:25:47.185Z,103321.41
2019-03-24T00:28:20.676Z,103320.86
2019-03-24T00:30:58.975Z,103321.97
2019-03-24T00:33:28.134Z,103320.88
2019-03-24T00:35:57.307Z,103317.19
2019-03-24T00:38:26.454Z,103315.27
2019-03-24T00:40:55.626Z,103312.08
2019-03-24T00:43:24.779Z,103311.50
2019-03-24T00:45:53.952Z,103313.61
2019-03-24T00:48:23.103Z,103307.25
2019-03-24T00:50:52.352Z,103301.91
2019-03-24T00:53:21.496Z,103303.66
2019-03-24T00:55:50.651Z,103302.51
2019-03-24T00:58:19.913Z,103305.53
2019-03-24T01:00:51.980Z,103306.88
2019-03-24T01:03:21.188Z,103308.25
2019-03-24T01:05:50.427Z,103303.77
2019-03-24T01:08:19.579Z,103295.16
2019-03-24T01:10:48.826Z,103295.78
2019-03-24T01:13:18.051Z,103294.74
2019-03-24T01:15:49.209Z,103293.08
2019-03-24T01:18:18.441Z,103289.29
2019-03-24T01:20:47.597Z,103291.37
2019-03-24T01:23:16.768Z,103292.94
2019-03-24T01:25:45.935Z,103289.55
2019-03-24T01:28:15.092Z,103291.84
2019-03-24T01:30:44.243Z,103287.47
2019-03-24T01:33:13.404Z,103281.36
2019-03-24T01:35:42.543Z,103280.97
2019-03-24T01:38:11.708Z,103281.09
2019-03-24T01:40:40.896Z,103272.94
2019-03-24T01:43:10.058Z,103267.29
2019-03-24T01:45:39.212Z,103275.42
2019-03-24T01:48:08.374Z,103274.60
2019-03-24T01:50:37.613Z,103269.99
2019-03-24T01:53:06.844Z,103268.00
2019-03-24T01:55:36.002Z,103272.02
2019-03-24T01:58:05.815Z,103275.53
2019-03-24T02:00:34.965Z,103272.23
2019-03-24T02:03:04.157Z,103273.52
2019-03-24T02:05:33.451Z,103271.77
2019-03-24T02:08:02.630Z,103267.66
2019-03-24T02:10:31.802Z,103269.94
2019-03-24T02:13:00.954Z,103273.42
2019-03-24T02:15:30.116Z,103265.31
2019-03-24T02:17:59.273Z,103257.79
2019-03-24T02:20:28.445Z,103253.84
2019-03-24T02:22:57.609Z,103257.84
2019-03-24T02:25:26.777Z,103249.86
2019-03-24T02:27:56.315Z,103243.25
2019-03-24T02:30:25.490Z,103246.39
2019-03-24T02:32:54.670Z,103242.00
2019-03-24T02:35:23.987Z,103242.73
2019-03-24T02:37:53.150Z,103241.71
2019-03-24T02:40:22.307Z,103236.94
2019-03-24T02:42:51.476Z,103222.65
2019-03-24T02:45:20.636Z,103229.96
2019-03-24T02:47:49.821Z,103234.58
2019-03-24T02:50:18.989Z,103234.98
2019-03-24T02:52:48.175Z,103235.46
2019-03-24T02:55:17.342Z,103239.28
2019-03-24T02:57:46.787Z,103241.38
2019-03-24T03:00:17.194Z,103244.59
2019-03-24T03:02:46.358Z,103238.50
2019-03-24T03:05:15.529Z,103236.11
2019-03-24T03:07:44.696Z,103240.95
2019-03-24T03:10:13.886Z,103238.95
2019-03-24T03:12:43.039Z,103233.75
2019-03-24T03:15:12.258Z,103233.12
2019-03-24T03:17:41.458Z,103232.88
2019-03-24T03:20:10.662Z,103235.36
2019-03-24T03:22:39.825Z,103236.80
2019-03-24T03:25:09.542Z,103236.08
2019-03-24T03:27:38.705Z,103237.48
2019-03-24T03:30:08.215Z,103228.36
2019-03-24T03:32:37.369Z,103225.88
2019-03-24T03:35:08.765Z,103225.52
2019-03-24T03:37:38.053Z,103223.95
2019-03-24T03:40:08.764Z,103226.23
2019-03-24T03:42:39.194Z,103224.31
2019-03-24T03:45:11.452Z,103215.95
2019-03-24T03:47:41.227Z,103213.20
2019-03-24T03:50:10.393Z,103213.97
2019-03-24T03:52:40.114Z,103207.05
2019-03-24T03:55:09.301Z,103205.84
2019-03-24T03:57:40.063Z,103208.84
2019-03-24T04:00:09.890Z,103210.65
2019-03-24T04:02:39.057Z,103205.45
2019-03-24T04:05:08.214Z,103199.48
2019-03-24T04:07:37.366Z,103202.77
2019-03-24T04:10:06.550Z,103207.05
2019-03-24T04:12:35.686Z,103208.33
2019-03-24T04:15:08.437Z,103200.17
2019-03-24T04:17:37.594Z,103199.73
2019-03-24T04:20:07.031Z,103195.94
2019-03-24T04:22:36.254Z,103195.66
2019-03-24T04:25:07.398Z,103197.09
2019-03-24T04:27:36.653Z,103191.81
2019-03-24T04:30:06.775Z,103192.22
2019-03-24T04:32:36.616Z,103193.42
2019-03-24T04:35:09.364Z,103193.02
2019-03-24T04:37:38.525Z,103189.02
2019-03-24T04:40:07.954Z,103192.45
2019-03-24T04:42:37.105Z,103189.30
2019-03-24T04:45:06.333Z,103194.30
2019-03-24T04:47:35.557Z,103193.89
2019-03-24T04:50:08.594Z,103192.65
2019-03-24T04:52:37.744Z,103185.77
2019-03-24T04:55:09.809Z,103177.66
2019-03-24T04:57:39.016Z,103179.02
2019-03-24T05:00:09.103Z,103173.50
2019-03-24T05:02:38.256Z,103170.22
2019-03-24T05:05:08.658Z,103172.86
2019-03-24T05:07:38.293Z,103174.25
2019-03-24T05:10:15.074Z,103169.25
2019-03-24T05:12:44.225Z,103168.17
2019-03-24T05:15:13.387Z,103167.97
2019-03-24T05:17:42.660Z,103165.53
2019-03-24T05:20:11.835Z,103170.16
2019-03-24T05:22:40.992Z,103168.95
2019-03-24T05:25:10.158Z,103165.68
2019-03-24T05:27:39.335Z,103163.68
2019-03-24T05:30:08.736Z,103164.86
2019-03-24T05:32:37.890Z,103165.63
2019-03-24T05:35:09.106Z,103165.44
2019-03-24T05:37:38.304Z,103167.33
2019-03-24T05:40:07.460Z,103169.41
2019-03-24T05:42:36.608Z,103164.02
2019-03-24T05:45:08.964Z,103161.69
2019-03-24T05:47:38.119Z,103162.22
2019-03-24T05:50:10.415Z,103160.05
2019-03-24T05:52:39.567Z,103152.42
2019-03-24T05:55:08.735Z,103153.73
2019-03-24T05:57:37.893Z,103148.66
2019-03-24T06:00:08.363Z,103152.86
2019-03-24T06:02:37.578Z,103156.89
2019-03-24T06:05:07.261Z,103156.53
2019-03-24T06:07:36.449Z,103163.86
2019-03-24T06:10:07.409Z,103157.47
2019-03-24T06:12:36.575Z,103157.10
2019-03-24T06:15:08.420Z,103156.30
2019-03-24T06:17:47.123Z,103154.41
2019-03-24T06:20:08.483Z,103158.37
2019-03-24T06:22:37.630Z,103152.94
2019-03-24T06:25:07.787Z,103150.38
2019-03-24T06:27:36.935Z,103143.51
2019-03-24T06:30:08.000Z,103138.20
2019-03-24T06:32:37.227Z,103142.03
2019-03-24T06:35:25.823Z,103148.79
2019-03-24T06:37:54.989Z,103144.67
2019-03-24T06:40:24.180Z,103141.95
2019-03-24T06:42:53.315Z,103145.58
2019-03-24T06:45:28.298Z,103144.54
2019-03-24T06:47:58.038Z,103132.02
2019-03-24T06:50:24.382Z,103130.69
2019-03-24T06:52:53.538Z,103126.21
2019-03-24T06:55:22.749Z,103119.73
2019-03-24T06:57:51.918Z,103118.27
2019-03-24T07:00:21.075Z,103115.05
2019-03-24T07:02:50.222Z,103115.75
2019-03-24T07:05:19.392Z,103112.84
2019-03-24T07:07:48.621Z,103118.83
2019-03-24T07:10:17.770Z,103115.42
2019-03-24T07:12:46.995Z,103114.05
2019-03-24T07:15:16.215Z,103123.32
2019-03-24T07:17:45.368Z,103124.86
2019-03-24T07:20:14.514Z,103117.39
2019-03-24T07:22:43.671Z,103130.97
2019-03-24T07:25:12.844Z,103136.41
2019-03-24T07:27:41.979Z,103135.52
2019-03-24T07:30:11.314Z,103138.77
2019-03-24T07:32:40.470Z,103142.22
2019-03-24T07:35:09.843Z,103133.59
2019-03-24T07:37:39.006Z,103124.53
2019-03-24T07:40:08.288Z,103130.97
2019-03-24T07:42:37.481Z,103127.68
2019-03-24T07:45:08.328Z,103131.81
2019-03-24T07:47:37.502Z,103141.06
2019-03-24T07:50:08.136Z,103146.98
2019-03-24T07:52:36.641Z,103145.41
2019-03-24T07:55:07.500Z,103143.25
2019-03-24T07:57:36.672Z,103143.03
2019-03-24T08:00:10.383Z,103146.05
2019-03-24T08:02:50.956Z,103148.75
2019-03-24T08:05:16.794Z,103148.05
2019-03-24T08:07:45.946Z,103152.50
2019-03-24T08:10:16.547Z,103153.61
2019-03-24T08:12:45.092Z,103162.96
2019-03-24T08:15:14.337Z,103167.41
2019-03-24T08:17:43.489Z,103160.29
2019-03-24T08:20:12.721Z,103161.88
2019-03-24T08:22:41.872Z,103151.13
2019-03-24T08:25:11.031Z,103160.92
2019-03-24T08:27:40.246Z,103159.82
2019-03-24T08:30:09.412Z,103158.45
2019-03-24T08:32:38.572Z,103154.34
2019-03-24T08:35:07.750Z,103156.83
2019-03-24T08:37:54.433Z,103164.85
2019-03-24T08:40:11.520Z,103159.16
2019-03-24T08:42:40.668Z,103156.62
2019-03-24T08:45:14.724Z,103167.66
2019-03-24T08:47:43.882Z,103157.73
2019-03-24T08:50:13.019Z,103154.11
2019-03-24T08:52:42.189Z,103156.80
2019-03-24T08:55:11.408Z,103161.31
2019-03-24T08:57:41.182Z,103163.78
2019-03-24T09:00:10.332Z,103170.84
2019-03-24T09:02:39.759Z,103164.06
2019-03-24T09:05:08.924Z,103159.05
2019-03-24T09:07:39.718Z,103156.59
2019-03-24T09:10:08.887Z,103156.43
2019-03-24T09:12:38.069Z,103157.03
2019-03-24T09:15:07.381Z,103155.89
2019-03-24T09:17:36.587Z,103161.26
2019-03-24T09:20:06.616Z,103151.50
2019-03-24T09:22:35.791Z,103149.97
2019-03-24T09:25:06.979Z,103146.05
2019-03-24T09:27:36.123Z,103150.69
2019-03-24T09:30:08.653Z,103134.70
2019-03-24T09:32:37.816Z,103120.48
2019-03-24T09:35:07.179Z,103108.32
2019-03-24T09:37:36.347Z,103107.83
2019-03-24T09:40:09.278Z,103097.72
2019-03-24T09:42:38.485Z,103095.30
2019-03-24T09:45:07.663Z,103091.73
2019-03-24T09:47:36.814Z,103091.74
2019-03-24T09:50:06.718Z,103091.44
2019-03-24T09:52:35.956Z,103091.39
2019-03-24T09:55:07.170Z,103083.95
2019-03-24T09:57:36.337Z,103089.31
2019-03-24T10:00:26.557Z,103085.92
2019-03-24T10:02:55.731Z,103077.83
2019-03-24T10:05:24.997Z,103087.31
2019-03-24T10:07:54.172Z,103086.23
2019-03-24T10:10:23.337Z,103086.26
2019-03-24T10:12:52.517Z,103083.29
2019-03-24T10:15:21.690Z,103074.46
2019-03-24T10:17:50.846Z,103079.00
2019-03-24T10:20:20.030Z,103080.62
2019-03-24T10:22:50.097Z,103081.20
2019-03-24T10:25:19.516Z,103075.62
2019-03-24T10:27:48.697Z,103075.94
2019-03-24T10:30:17.876Z,103083.04
2019-03-24T10:32:48.042Z,103083.63
2019-03-24T10:35:17.259Z,103090.89
2019-03-24T10:37:46.458Z,103093.94
2019-03-24T10:40:15.836Z,103096.88
2019-03-24T10:42:45.025Z,103107.09
2019-03-24T10:45:14.260Z,103103.41
2019-03-24T10:47:43.413Z,103105.89
2019-03-24T10:50:14.387Z,103097.28
2019-03-24T10:52:43.566Z,103096.58
2019-03-24T10:55:12.883Z,103104.03
2019-03-24T10:57:42.280Z,103095.55
2019-03-24T11:00:13.656Z,103094.52
2019-03-24T11:02:43.028Z,103098.50
2019-03-24T11:05:12.197Z,103098.20
2019-03-24T11:07:41.363Z,103101.81
2019-03-24T11:10:10.579Z,103095.44
2019-03-24T11:12:39.806Z,103093.31
2019-03-24T11:15:10.644Z,103089.00
2019-03-24T11:17:39.801Z,103094.48
2019-03-24T11:20:09.045Z,103099.80
2019-03-24T11:22:38.208Z,103093.52
2019-03-24T11:43:00.792Z,103077.98
2019-03-24T11:45:29.960Z,103080.42
2019-03-24T11:47:59.129Z,103082.23
2019-03-24T11:50:28.294Z,103079.23
2019-03-24T11:52:57.468Z,103080.03
2019-03-24T11:55:26.705Z,103076.03
2019-03-24T11:58:05.265Z,103063.48
2019-03-24T12:00:54.026Z,103071.45
2019-03-24T12:03:25.282Z,103069.69
2019-03-24T12:05:54.157Z,103053.37
2019-03-24T12:08:23.327Z,103054.00
2019-03-24T12:10:52.519Z,103045.71
2019-03-24T12:13:21.671Z,103043.13
2019-03-24T12:15:50.844Z,103041.83
2019-03-24T12:18:20.013Z,103033.16
2019-03-24T12:20:49.255Z,103035.33
2019-03-24T12:23:20.943Z,103029.79
2019-03-24T12:25:49.383Z,103020.88
2019-03-24T12:28:20.571Z,103016.10
2019-03-24T12:30:49.768Z,103021.74
2019-03-24T12:33:18.962Z,103016.34
2019-03-24T12:35:48.107Z,103015.69
2019-03-24T12:38:18.192Z,103006.23
2019-03-24T12:40:47.356Z,103008.59
2019-03-24T12:43:19.771Z,103009.46
2019-03-24T12:45:47.404Z,103004.09
2019-03-24T12:48:16.657Z,102992.39
2019-03-24T12:50:46.092Z,102996.16
2019-03-24T12:53:15.247Z,102993.73
2019-03-24T12:55:44.489Z,102997.39
2019-03-24T12:58:13.777Z,102992.68
2019-03-24T13:00:42.941Z,102995.69
2019-03-24T13:03:13.873Z,102992.86
2019-03-24T13:05:43.175Z,102991.08
2019-03-24T13:08:17.536Z,102985.63
2019-03-24T13:10:46.756Z,102979.32
2019-03-24T13:13:15.918Z,102973.08
2019-03-24T13:15:51.177Z,102978.09
2019-03-24T13:18:23.025Z,102976.26
2019-03-24T13:20:55.488Z,102971.23
2019-03-24T13:23:24.685Z,102961.79
2019-03-24T13:25:53.946Z,102962.30
2019-03-24T13:28:23.112Z,102962.16
2019-03-24T13:30:52.532Z,102949.03
2019-03-24T13:33:21.725Z,102945.83
2019-03-24T13:35:52.544Z,102936.39
2019-03-24T13:38:21.713Z,102935.28
2019-03-24T13:40:50.951Z,102930.91
2019-03-24T13:43:20.129Z,102927.20
2019-03-24T13:45:49.334Z,102925.62
2019-03-24T13:48:18.484Z,102923.47
2019-03-24T13:50:47.668Z,102917.72
2019-03-24T13:53:16.848Z,102913.83
2019-03-24T13:55:46.041Z,102907.25
2019-03-24T13:58:15.212Z,102896.45
2019-03-24T14:00:44.440Z,102896.52
2019-03-24T14:03:13.658Z,102891.99
2019-03-24T14:05:42.898Z,102891.58
2019-03-24T14:08:12.057Z,102890.00
2019-03-24T14:10:41.442Z,102879.27
2019-03-24T14:13:10.608Z,102884.99
2019-03-24T14:15:39.856Z,102872.91
2019-03-24T14:18:09.076Z,102874.92
2019-03-24T14:20:43.420Z,102876.89
2019-03-24T14:23:09.217Z,102884.55
2019-03-24T14:25:38.376Z,102870.98
2019-03-24T14:28:07.551Z,102873.31
2019-03-24T14:30:48.464Z,102877.80
2019-03-24T14:33:17.716Z,102876.17
2019-03-24T14:35:46.866Z,102879.52
2019-03-24T14:38:16.037Z,102876.41
2019-03-24T14:40:45.218Z,102876.77
2019-03-24T14:43:14.464Z,102873.11
2019-03-24T14:45:43.641Z,102873.04
2019-03-24T14:48:12.818Z,102865.25
2019-03-24T14:50:42.002Z,102869.80
2019-03-24T14:53:11.163Z,102871.19
2019-03-24T14:55:40.604Z,102866.72
2019-03-24T14:58:09.767Z,102874.34
2019-03-24T15:00:41.351Z,102871.25
2019-03-24T15:03:10.602Z,102867.64
2019-03-24T15:05:39.835Z,102862.06
2019-03-24T15:08:09.055Z,102866.75
2019-03-24T15:10:38.229Z,102867.65
2019-03-24T15:13:07.398Z,102868.59
2019-03-24T15:15:36.579Z,102863.12
2019-03-24T15:18:07.362Z,102857.77
2019-03-24T15:20:36.608Z,102858.89
2019-03-24T15:23:05.789Z,102856.17
2019-03-24T15:25:34.963Z,102857.61
2019-03-24T15:28:04.125Z,102853.20
2019-03-24T15:30:33.288Z,102851.73
2019-03-24T15:33:02.483Z,102849.92
2019-03-24T15:35:31.640Z,102844.03
2019-03-24T15:38:08.001Z,102850.67
2019-03-24T15:40:31.715Z,102846.31
2019-03-24T15:43:00.947Z,102842.08
2019-03-24T15:45:30.142Z,102834.08
2019-03-24T15:47:59.320Z,102835.56
2019-03-24T15:50:28.502Z,102837.67
2019-03-24T15:52:57.697Z,102834.02
2019-03-24T15:55:33.747Z,102837.42
2019-03-24T15:58:07.070Z,102828.80
2019-03-24T16:00:42.329Z,102830.59
2019-03-24T16:03:11.548Z,102835.77
2019-03-24T16:05:40.710Z,102829.53
2019-03-24T16:08:15.486Z,102832.84
2019-03-24T16:10:44.652Z,102821.45
2019-03-24T16:13:13.877Z,102815.33
2019-03-24T16:15:43.134Z,102819.05
2019-03-24T16:18:12.318Z,102825.20
2019-03-24T16:20:41.628Z,102830.64
2019-03-24T16:23:10.769Z,102818.31
2019-03-24T16:25:41.556Z,102812.92
2019-03-24T16:28:10.729Z,102814.64
2019-03-24T16:30:39.922Z,102820.14
2019-03-24T16:33:09.203Z,102821.75
2019-03-24T16:35:41.570Z,102817.85
2019-03-24T16:38:10.729Z,102810.27
2019-03-24T16:40:41.460Z,102810.75
2019-03-24T16:43:11.260Z,102810.85
2019-03-24T16:45:40.540Z,102802.92
2019-03-24T16:48:09.732Z,102801.17
2019-03-24T16:50:38.955Z,102799.95
2019-03-24T16:53:08.183Z,102813.03
2019-03-24T16:55:37.371Z,102811.93
2019-03-24T16:58:06.609Z,102816.20
2019-03-24T17:00:35.783Z,102809.01
2019-03-24T17:03:06.570Z,102806.89
2019-03-24T17:05:35.755Z,102809.42
2019-03-24T17:08:04.997Z,102810.23
2019-03-24T17:10:37.503Z,102807.81
2019-03-24T17:13:10.804Z,102806.41
2019-03-24T17:15:40.283Z,102804.64
2019-03-24T17:18:09.500Z,102809.26
2019-03-24T17:20:38.660Z,102815.14
2019-03-24T17:23:08.172Z,102804.59
2019-03-24T17:25:37.421Z,102809.83
2019-03-24T17:28:06.591Z,102813.56
2019-03-24T17:30:35.733Z,102807.16
2019-03-24T17:33:04.913Z,102818.76
2019-03-24T17:35:34.065Z,102819.23
2019-03-24T17:38:03.224Z,102818.72
2019-03-24T17:40:38.540Z,102810.34
2019-03-24T17:43:03.270Z,102816.05
2019-03-24T17:45:32.419Z,102818.34
2019-03-24T17:48:01.565Z,102819.37
2019-03-24T17:50:30.783Z,102819.37
2019-03-24T17:52:59.936Z,102819.58
2019-03-24T17:55:31.062Z,102826.25
2019-03-24T17:57:59.992Z,102821.06
2019-03-24T18:00:47.695Z,102817.41
2019-03-24T18:03:16.865Z,102826.23
2019-03-24T18:05:46.003Z,102828.53
2019-03-24T18:08:15.234Z,102831.56
2019-03-24T18:10:44.388Z,102833.87
2019-03-24T18:13:13.550Z,102826.08
2019-03-24T18:15:42.701Z,102825.98
2019-03-24T18:18:11.864Z,102821.67
2019-03-24T18:20:41.093Z,102822.61
2019-03-24T18:23:10.246Z,102826.55
2019-03-24T18:25:39.510Z,102831.22
2019-03-24T18:28:08.663Z,102833.66
2019-03-24T18:30:37.915Z,102835.28
2019-03-24T18:33:07.076Z,102837.17
2019-03-24T18:35:36.255Z,102834.73
2019-03-24T18:38:05.464Z,102835.59
2019-03-24T18:40:34.634Z,102842.04
2019-03-24T18:43:03.790Z,102840.81
2019-03-24T18:45:32.951Z,102841.74
2019-03-24T18:48:02.279Z,102839.45
2019-03-24T18:50:31.551Z,102836.31
2019-03-24T18:53:00.708Z,102829.77
2019-03-24T18:55:29.841Z,102828.50
2019-03-24T18:57:59.015Z,102828.71
2019-03-24T19:00:28.223Z,102824.81
2019-03-24T19:02:59.132Z,102830.39
2019-03-24T19:05:28.338Z,102826.16
2019-03-24T19:07:57.523Z,102827.38
2019-03-24T19:10:26.732Z,102820.78
2019-03-24T19:12:55.893Z,102815.43
2019-03-24T19:15:25.163Z,102809.95
2019-03-24T19:17:54.290Z,102812.13
2019-03-24T19:20:23.465Z,102813.31
2019-03-24T19:22:54.282Z,102816.12
2019-03-24T19:25:23.448Z,102810.54
2019-03-24T19:27:52.618Z,102805.20
2019-03-24T19:30:32.492Z,102805.20
2019-03-24T19:33:01.729Z,102798.32
2019-03-24T19:35:30.888Z,102799.28
2019-03-24T19:38:00.098Z,102805.03
2019-03-24T19:40:33.763Z,102810.74
2019-03-24T19:43:02.912Z,102808.45
2019-03-24T19:45:32.094Z,102808.97
2019-03-24T19:48:01.610Z,102808.23
2019-03-24T19:50:30.764Z,102809.20
2019-03-24T19:52:59.980Z,102810.69
2019-03-24T19:55:29.138Z,102814.44
2019-03-24T19:57:58.458Z,102819.33
2019-03-24T20:00:27.603Z,102819.47
2019-03-24T20:02:56.850Z,102817.50
2019-03-24T20:05:26.995Z,102816.47
2019-03-24T20:07:56.289Z,102805.64
2019-03-24T20:10:25.487Z,102809.36
2019-03-24T20:12:54.642Z,102804.27
2019-03-24T20:15:23.886Z,102809.34
2019-03-24T20:17:56.289Z,102802.86
2019-03-24T20:20:37.182Z,102799.93
2019-03-24T20:23:06.379Z,102796.39
2019-03-24T20:25:35.615Z,102790.52
2019-03-24T20:28:10.525Z,102785.47
2019-03-24T20:30:41.385Z,102782.16
2019-03-24T20:33:15.254Z,102779.95
2019-03-24T20:35:59.727Z,102778.73
2019-03-24T20:38:31.920Z,102768.19
2019-03-24T20:41:04.628Z,102767.83
2019-03-24T20:43:37.868Z,102763.30
2019-03-24T20:46:09.744Z,102767.80
2019-03-24T20:48:43.538Z,102767.03
2019-03-24T20:51:31.925Z,102768.02
2019-03-24T20:53:57.343Z,102761.09
2019-03-24T20:56:27.285Z,102760.35
2019-03-24T20:58:56.466Z,102764.30
2019-03-24T21:01:25.606Z,102756.84
2019-03-24T21:03:54.768Z,102758.79
2019-03-24T21:06:24.042Z,102755.51
2019-03-24T21:08:53.171Z,102756.39
2019-03-24T21:11:22.348Z,102751.91
2019-03-24T21:13:51.498Z,102752.78
2019-03-24T21:16:21.031Z,102752.88
2019-03-24T21:18:51.182Z,102751.56
2019-03-24T21:21:20.061Z,102748.94
2019-03-24T21:23:54.526Z,102745.06
2019-03-24T21:26:30.549Z,102742.66
2019-03-24T21:28:59.706Z,102739.47
2019-03-24T21:31:28.898Z,102738.35
2019-03-24T21:33:58.049Z,102739.14
2019-03-24T21:36:27.222Z,102736.42
2019-03-24T21:38:56.408Z,102733.20
2019-03-24T21:41:25.582Z,102730.72
2019-03-24T21:43:57.498Z,102727.28
2019-03-24T21:46:34.153Z,102719.98
2019-03-24T21:49:03.298Z,102714.72
2019-03-24T21:51:32.481Z,102711.03
2019-03-24T21:54:01.640Z,102708.61
2019-03-24T21:56:30.965Z,102703.23
2019-03-24T21:59:00.136Z,102701.71
2019-03-24T22:01:33.756Z,102697.53
2019-03-24T22:04:02.925Z,102694.47
2019-03-24T22:06:32.146Z,102690.39
2019-03-24T22:09:01.327Z,102680.42
2019-03-24T22:11:30.495Z,102678.30
2019-03-24T22:13:59.638Z,102675.66
2019-03-24T22:16:28.809Z,102668.36
2019-03-24T22:18:57.988Z,102659.48
2019-03-24T22:21:28.636Z,102653.81
2019-03-24T22:24:03.457Z,102650.87
2019-03-24T22:26:42.059Z,102647.34
2019-03-24T22:29:11.278Z,102640.07
2019-03-24T22:31:40.634Z,102636.58
2019-03-24T22:34:09.880Z,102637.86
2019-03-24T22:36:39.035Z,102641.71
2019-03-24T22:39:08.951Z,102639.56
2019-03-24T22:41:40.156Z,102632.06
2019-03-24T22:44:09.032Z,102631.16
2019-03-24T22:46:38.168Z,102628.67
2019-03-24T22:49:07.339Z,102625.45
2019-03-24T22:51:36.495Z,102620.56
2019-03-24T22:54:05.635Z,102615.70
2019-03-24T22:56:34.809Z,102610.52
2019-03-24T22:59:04.347Z,102604.08
2019-03-24T23:01:33.561Z,102602.46
2019-03-24T23:04:02.751Z,102601.81
2019-03-24T23:06:31.898Z,102601.75
2019-03-24T23:09:01.204Z,102598.82
2019-03-24T23:11:30.370Z,102590.45
2019-03-24T23:13:59.527Z,102585.76
2019-03-24T23:16:28.741Z,102571.78
2019-03-24T23:19:00.692Z,102572.37
2019-03-24T23:21:29.837Z,102565.98
2019-03-24T23:23:59.003Z,102560.04
2019-03-24T23:26:28.149Z,102550.56
2019-03-24T23:28:57.331Z,102548.77
2019-03-24T23:31:26.481Z,102541.21
2019-03-24T23:33:55.932Z,102537.32
2019-03-24T23:36:25.084Z,102530.30
2019-03-24T23:38:54.209Z,102523.64
2019-03-24T23:41:23.399Z,102520.70
2019-03-24T23:43:52.548Z,102515.72
2019-03-24T23:46:21.703Z,102508.16
2019-03-24T23:48:50.933Z,102509.65
2019-03-24T23:51:20.058Z,102502.90
2019-03-24T23:53:49.256Z,102500.28
2019-03-24T23:56:18.474Z,102494.03
2019-03-24T23:58:47.635Z,102485.96
